アテネ の空港の天気 - METARとTAF

アテネ国際空港 ( LGAV / ATH ) - ギリシャ アテネ
飛行場実況気象(Metar)
観測時間04/10 09:50 EEST (04/10 06:50 UTC)
風向・風速北北東 5m/s
視程10km以上
天気現象
なし
気温18℃
湿度24%
気圧1017hPa
METARLGAV 100650Z 02010KT CAVOK 18/M03 Q1017 NOSIG
過去の天気等 Google飛行場航空写真 Wunderground天気予報

過去48時間のMETAR

飛行場予報(TAF)
発表時間: 4/10 08:00 EEST (4/10 05:00 UTC)
予報対象時間: 10日9時 EEST ~ 11日9時 EEST
風向・風速北 6m/s
視程10km以上
少しの雲 雲底高度 760m
10日9時 EEST ~ 10日15時 EEST に一時的に
風向・風速北北東 8m/s 瞬間風速 13m/s
10日19時 EEST ~ 10日21時 EEST に徐々に
風向・風速北北西 5m/s
TAF LGAV 100500Z 1006/1106 35012KT 9999 FEW025
TEMPO 1006/1012 02015G25KT
BECMG 1016/1018 33010KT